createdAt,value
2018-11-22T00:14:35.478Z,73.32
2018-11-22T00:17:41.335Z,73.68
2018-11-22T00:20:46.762Z,73.20
2018-11-22T00:23:52.196Z,73.18
2018-11-22T00:27:16.629Z,73.14
2018-11-22T00:38:11.040Z,72.90
2018-11-22T01:12:41.147Z,73.33
2018-11-22T01:28:06.446Z,74.01
2018-11-22T01:35:59.527Z,74.64
2018-11-22T01:46:59.981Z,75.86
2018-11-22T01:58:28.137Z,75.34
2018-11-22T02:01:45.936Z,74.77
2018-11-22T02:05:15.101Z,74.92
2018-11-22T02:20:01.399Z,74.75
2018-11-22T02:34:59.743Z,74.22
2018-11-22T02:38:05.123Z,75.04
2018-11-22T02:41:10.474Z,74.42
2018-11-22T03:39:01.984Z,74.05
2018-11-22T03:42:07.386Z,74.69
2018-11-22T04:24:43.125Z,73.67
2018-11-22T04:28:25.994Z,74.15
2018-11-22T04:35:58.007Z,74.53
2018-11-22T04:54:08.158Z,75.50
2018-11-22T04:57:13.545Z,76.03
2018-11-22T05:00:20.133Z,76.29
2018-11-22T05:03:25.607Z,76.52
2018-11-22T05:06:30.986Z,76.51
2018-11-22T05:13:41.794Z,75.71
2018-11-22T05:37:34.681Z,75.66
2018-11-22T05:48:30.964Z,76.92
2018-11-22T05:56:00.511Z,76.39
2018-11-22T06:26:57.907Z,75.76
2018-11-22T06:30:03.274Z,75.12
2018-11-22T06:33:08.627Z,75.46
2018-11-22T06:36:14.005Z,75.27
2018-11-22T06:48:18.381Z,74.63
2018-11-22T06:51:23.761Z,74.74
2018-11-22T06:54:29.167Z,74.57
2018-11-22T06:57:34.511Z,74.70
2018-11-22T07:00:39.884Z,74.20
2018-11-22T07:03:45.238Z,74.55
2018-11-22T07:06:50.607Z,73.94
2018-11-22T07:09:56.028Z,74.06
2018-11-22T07:13:01.979Z,74.13
2018-11-22T07:24:34.226Z,74.28
2018-11-22T07:35:56.787Z,74.12
2018-11-22T07:39:08.814Z,74.66
2018-11-22T07:42:16.986Z,74.56
2018-11-22T07:45:28.338Z,75.32
2018-11-22T07:48:37.019Z,75.17
2018-11-22T07:51:42.384Z,74.78
2018-11-22T07:54:56.201Z,74.76
2018-11-22T07:58:03.925Z,75.09
2018-11-22T08:01:19.983Z,75.05
2018-11-22T08:04:32.252Z,74.99
2018-11-22T08:07:46.714Z,75.14
2018-11-22T08:11:07.549Z,75.42
2018-11-22T08:15:06.897Z,74.81
2018-11-22T08:19:47.329Z,74.65
2018-11-22T08:23:10.329Z,75.74
2018-11-22T08:26:40.930Z,76.40
2018-11-22T08:29:51.070Z,77.09
2018-11-22T08:33:24.063Z,76.71
2018-11-22T08:36:57.844Z,77.05
2018-11-22T08:40:59.371Z,77.16
2018-11-22T08:44:11.901Z,77.31
2018-11-22T08:47:28.841Z,76.65
2018-11-22T08:51:21.493Z,77.31
2018-11-22T09:04:01.197Z,76.00
2018-11-22T09:07:34.263Z,75.72
2018-11-22T09:10:43.787Z,75.71
2018-11-22T09:14:04.249Z,75.99
2018-11-22T09:17:13.752Z,75.79
2018-11-22T09:20:27.461Z,75.90
2018-11-22T09:23:54.857Z,76.17
2018-11-22T09:27:10.228Z,76.17
2018-11-22T09:31:19.095Z,76.25
2018-11-22T09:34:38.204Z,75.53
2018-11-22T09:38:33.907Z,76.18
2018-11-22T09:41:49.398Z,76.13
2018-11-22T09:45:10.730Z,76.01
2018-11-22T09:48:49.797Z,75.99
2018-11-22T09:52:26.027Z,76.41
2018-11-22T09:55:48.341Z,75.83
2018-11-22T09:59:16.632Z,76.50
2018-11-22T10:03:12.931Z,76.53
2018-11-22T10:06:44.169Z,76.79
2018-11-22T10:09:52.586Z,75.94
2018-11-22T10:13:04.836Z,75.94
2018-11-22T10:16:11.779Z,75.23
2018-11-22T10:19:20.424Z,75.65
2018-11-22T10:23:00.404Z,75.33
2018-11-22T10:26:23.041Z,76.06
2018-11-22T10:29:53.134Z,77.04
2018-11-22T10:33:37.835Z,76.74
2018-11-22T10:36:58.901Z,76.62
2018-11-22T10:40:57.018Z,76.78
2018-11-22T10:44:20.024Z,76.58
2018-11-22T10:47:57.898Z,76.86
2018-11-22T10:51:20.944Z,76.54
2018-11-22T10:59:38.519Z,76.93
2018-11-22T11:03:27.114Z,76.32
2018-11-22T11:07:12.515Z,76.04
2018-11-22T11:11:03.930Z,75.66
2018-11-22T11:14:49.668Z,75.40
2018-11-22T11:18:02.515Z,75.76
2018-11-22T11:22:03.162Z,76.09
2018-11-22T11:26:26.873Z,75.32
2018-11-22T11:30:46.045Z,75.88
2018-11-22T11:34:16.474Z,76.26
2018-11-22T11:54:44.371Z,76.33
2018-11-22T12:02:45.802Z,75.29
2018-11-22T12:06:41.937Z,75.77
2018-11-22T12:10:25.459Z,75.46
2018-11-22T12:14:33.857Z,74.68
2018-11-22T12:18:21.258Z,74.54
2018-11-22T12:21:42.580Z,73.93
2018-11-22T12:26:05.417Z,74.47
2018-11-22T12:29:41.676Z,74.96
2018-11-22T12:33:49.753Z,75.30
2018-11-22T12:41:47.081Z,76.11
2018-11-22T12:45:24.444Z,76.70
2018-11-22T12:53:48.430Z,76.30
2018-11-22T12:57:54.335Z,75.55
2018-11-22T13:00:35.994Z,75.36
2018-11-22T13:04:22.883Z,75.13
2018-11-22T13:08:04.996Z,74.93
2018-11-22T13:12:04.192Z,74.74
2018-11-22T13:16:43.959Z,74.37
2018-11-22T13:20:34.977Z,74.69
2018-11-22T13:35:02.080Z,74.35
2018-11-22T13:44:50.758Z,75.35
2018-11-22T13:48:23.030Z,75.03
2018-11-22T13:52:24.721Z,74.80
2018-11-22T13:56:07.695Z,75.35
2018-11-22T13:59:37.364Z,74.31
2018-11-22T14:13:36.756Z,73.97
2018-11-22T14:17:24.787Z,73.78
2018-11-22T14:22:07.053Z,74.16
2018-11-22T14:25:16.785Z,75.31
2018-11-22T14:28:22.261Z,74.68
2018-11-22T14:31:27.736Z,74.94
2018-11-22T14:34:34.401Z,75.38
2018-11-22T14:37:40.235Z,75.93
2018-11-22T14:40:45.810Z,76.66
2018-11-22T14:43:51.491Z,75.43
2018-11-22T14:46:56.912Z,75.15
2018-11-22T14:50:02.377Z,74.81
2018-11-22T14:53:13.667Z,75.77
2018-11-22T14:56:19.167Z,75.50
2018-11-22T14:59:24.711Z,75.27
2018-11-22T15:02:32.095Z,74.94
2018-11-22T15:05:37.672Z,75.42
2018-11-22T15:08:43.068Z,75.17
2018-11-22T15:11:48.716Z,76.54
2018-11-22T15:14:54.251Z,75.54
2018-11-22T15:17:59.738Z,75.34
2018-11-22T15:21:05.690Z,76.11
2018-11-22T15:24:12.835Z,75.50
2018-11-22T15:27:18.420Z,75.81
2018-11-22T15:30:25.248Z,75.12
2018-11-22T15:33:31.086Z,75.62
2018-11-22T15:36:36.666Z,76.12
2018-11-22T15:39:42.935Z,76.00
2018-11-22T15:42:51.656Z,75.63
2018-11-22T15:45:57.263Z,75.51
2018-11-22T15:49:04.231Z,75.49
2018-11-22T15:52:10.338Z,75.13
2018-11-22T15:55:20.965Z,74.80
2018-11-22T15:58:22.295Z,75.51
2018-11-22T16:01:39.455Z,75.26
2018-11-22T16:04:44.883Z,75.43
2018-11-22T16:07:51.845Z,76.45
2018-11-22T16:10:57.228Z,75.93
2018-11-22T16:14:04.835Z,76.23
2018-11-22T16:17:10.619Z,76.35
2018-11-22T16:20:16.015Z,76.81
2018-11-22T16:23:21.655Z,76.76
2018-11-22T16:26:28.238Z,76.15
2018-11-22T16:29:33.639Z,75.78
2018-11-22T16:32:39.088Z,77.11
2018-11-22T16:35:44.485Z,77.45
2018-11-22T16:38:50.499Z,77.31
2018-11-22T16:41:55.895Z,77.38
2018-11-22T16:45:02.040Z,76.85
2018-11-22T16:48:09.615Z,78.08
2018-11-22T16:51:14.995Z,78.26
2018-11-22T16:54:20.711Z,78.42
2018-11-22T16:57:37.755Z,77.98
2018-11-22T17:00:43.140Z,77.29
2018-11-22T17:03:52.281Z,77.87
2018-11-22T17:06:59.871Z,77.48
2018-11-22T17:10:06.340Z,77.82
2018-11-22T17:13:12.173Z,78.11
2018-11-22T17:16:17.570Z,78.18
2018-11-22T17:19:23.450Z,77.51
2018-11-22T17:22:28.869Z,76.97
2018-11-22T17:25:35.177Z,76.34
2018-11-22T17:28:40.547Z,76.62
2018-11-22T17:31:45.935Z,77.15
2018-11-22T17:34:52.101Z,77.30
2018-11-22T17:37:59.071Z,76.69
2018-11-22T17:41:04.740Z,76.90
2018-11-22T17:44:10.228Z,77.58
2018-11-22T17:47:15.739Z,76.98
2018-11-22T17:50:27.175Z,76.90
2018-11-22T17:53:32.575Z,76.43
2018-11-22T17:56:38.020Z,77.51
2018-11-22T17:59:43.408Z,77.56
2018-11-22T18:02:50.134Z,77.41
2018-11-22T18:05:55.519Z,76.79
2018-11-22T18:09:01.144Z,77.37
2018-11-22T18:12:06.727Z,77.55
2018-11-22T18:15:13.586Z,77.65
2018-11-22T18:18:18.967Z,77.47
2018-11-22T18:21:25.208Z,77.88
2018-11-22T18:24:30.638Z,78.50
2018-11-22T18:27:36.316Z,78.96
2018-11-22T18:30:41.827Z,78.86
2018-11-22T18:33:47.179Z,78.04
2018-11-22T18:36:52.579Z,78.26
2018-11-22T18:39:57.984Z,77.10
2018-11-22T18:43:04.034Z,78.79
2018-11-22T18:46:09.402Z,78.30
2018-11-22T18:49:14.771Z,78.49
2018-11-22T18:52:20.143Z,79.09
2018-11-22T18:55:25.483Z,78.38
2018-11-22T18:58:30.859Z,78.48
2018-11-22T19:01:36.288Z,78.58
2018-11-22T19:04:41.647Z,78.67
2018-11-22T19:07:48.104Z,79.17
2018-11-22T19:10:53.447Z,79.87
2018-11-22T19:13:58.816Z,79.43
2018-11-22T19:17:04.188Z,79.17
2018-11-22T19:20:21.516Z,79.11
2018-11-22T19:23:26.961Z,79.51
2018-11-22T19:26:32.310Z,80.19
2018-11-22T19:29:37.700Z,79.73
2018-11-22T19:32:43.844Z,79.70
2018-11-22T19:35:51.070Z,80.17
2018-11-22T19:38:56.440Z,79.51
2018-11-22T19:42:01.835Z,80.12
2018-11-22T19:45:09.950Z,80.38
2018-11-22T19:48:15.728Z,79.61
2018-11-22T19:51:21.071Z,80.35
2018-11-22T19:54:26.459Z,80.60
2018-11-22T19:57:31.867Z,79.66
2018-11-22T20:00:37.829Z,80.58
2018-11-22T20:03:43.196Z,81.07
2018-11-22T20:06:48.923Z,80.75
2018-11-22T20:09:54.285Z,81.21
2018-11-22T20:12:59.687Z,80.77
2018-11-22T20:16:05.058Z,80.48
2018-11-22T20:19:10.426Z,80.19
2018-11-22T20:22:15.903Z,80.42
2018-11-22T20:25:21.495Z,81.23
2018-11-22T20:28:26.863Z,81.93
2018-11-22T20:31:32.219Z,81.75
2018-11-22T20:34:37.593Z,81.60
2018-11-22T20:37:43.663Z,80.62
2018-11-22T20:40:49.085Z,81.59
2018-11-22T20:43:54.456Z,80.91
2018-11-22T20:46:59.867Z,81.37
2018-11-22T20:50:06.832Z,81.71
2018-11-22T20:53:12.180Z,81.18
2018-11-22T20:56:17.544Z,80.27
2018-11-22T20:59:22.955Z,80.63
2018-11-22T21:02:28.702Z,81.10
2018-11-22T21:05:35.053Z,80.42
2018-11-22T21:08:39.442Z,81.04
2018-11-22T21:11:45.335Z,80.72
2018-11-22T21:14:50.700Z,80.75
2018-11-22T21:17:58.090Z,81.06
2018-11-22T21:21:03.466Z,81.03
2018-11-22T21:24:08.844Z,80.90
2018-11-22T21:27:14.222Z,81.14
2018-11-22T21:30:22.840Z,80.95
2018-11-22T21:33:28.193Z,80.77
2018-11-22T21:36:33.564Z,82.08
2018-11-22T21:39:39.310Z,80.30
2018-11-22T21:42:44.686Z,80.49
2018-11-22T21:45:50.048Z,79.63
2018-11-22T21:48:55.399Z,79.75
2018-11-22T21:52:00.777Z,80.18
2018-11-22T21:55:09.168Z,79.66
2018-11-22T21:58:14.618Z,79.43
2018-11-22T22:01:31.855Z,80.44
2018-11-22T22:04:37.273Z,80.91
2018-11-22T22:07:42.922Z,81.69
2018-11-22T22:10:48.619Z,80.42
2018-11-22T22:13:54.173Z,80.51
2018-11-22T22:17:00.835Z,81.07
2018-11-22T22:20:09.481Z,80.76
2018-11-22T22:23:15.040Z,80.73
2018-11-22T22:26:20.532Z,81.48
2018-11-22T22:29:26.154Z,81.07
2018-11-22T22:32:31.708Z,81.49
2018-11-22T22:35:37.401Z,81.28
2018-11-22T22:38:42.980Z,81.07
2018-11-22T22:41:48.678Z,80.84
2018-11-22T22:44:54.267Z,80.82
2018-11-22T22:47:59.794Z,80.83
2018-11-22T22:51:05.759Z,80.68
2018-11-22T22:54:11.351Z,80.03
2018-11-22T22:57:16.910Z,80.29
2018-11-22T23:00:29.028Z,80.04
2018-11-22T23:03:34.588Z,80.61
2018-11-22T23:06:40.112Z,80.17
2018-11-22T23:09:45.497Z,81.49
2018-11-22T23:12:50.939Z,81.23
2018-11-22T23:15:56.338Z,80.44
2018-11-22T23:19:01.746Z,81.16
2018-11-22T23:22:07.208Z,80.90
2018-11-22T23:25:13.392Z,81.35
2018-11-22T23:28:18.860Z,81.17
2018-11-22T23:31:24.339Z,82.06
2018-11-22T23:34:29.871Z,82.43
2018-11-22T23:37:35.405Z,82.23
2018-11-22T23:40:40.789Z,81.78
2018-11-22T23:43:46.183Z,81.80
2018-11-22T23:46:51.558Z,81.66
2018-11-22T23:49:56.907Z,81.12
2018-11-22T23:53:03.524Z,81.65
2018-11-22T23:56:09.032Z,81.58
2018-11-22T23:59:14.489Z,81.23
